createdAt,value
2023-02-22T00:00:18.530Z,3.63
2023-02-22T00:02:46.228Z,4.87
2023-02-22T00:05:15.983Z,4.70
2023-02-22T00:07:43.895Z,4.20
2023-02-22T00:10:13.304Z,5.80
2023-02-22T00:12:40.833Z,5.57
2023-02-22T00:15:08.671Z,4.63
2023-02-22T00:17:35.758Z,7.50
2023-02-22T00:20:05.344Z,4.87
2023-02-22T00:22:31.944Z,4.93
2023-02-22T00:24:58.374Z,5.30
2023-02-22T00:27:25.606Z,4.27
2023-02-22T00:29:52.377Z,4.00
2023-02-22T00:32:18.828Z,5.20
2023-02-22T00:34:47.176Z,6.03
2023-02-22T00:37:13.535Z,6.70
2023-02-22T00:39:40.068Z,4.33
2023-02-22T00:42:06.459Z,3.93
2023-02-22T00:44:33.544Z,4.70
2023-02-22T00:46:59.929Z,3.30
2023-02-22T00:49:26.331Z,2.57
2023-02-22T00:51:54.155Z,4.97
2023-02-22T00:54:20.619Z,3.33
2023-02-22T00:56:47.057Z,2.97
2023-02-22T00:59:13.472Z,3.47
2023-02-22T01:01:40.536Z,2.83
2023-02-22T01:04:06.982Z,3.20
2023-02-22T01:06:33.774Z,6.43
2023-02-22T01:09:01.739Z,4.23
2023-02-22T01:11:28.162Z,6.27
2023-02-22T01:13:55.849Z,2.77
2023-02-22T01:16:22.524Z,2.97
2023-02-22T01:18:49.782Z,4.50
2023-02-22T01:21:16.679Z,4.50
2023-02-22T01:23:44.563Z,5.33
2023-02-22T01:26:11.379Z,5.53
2023-02-22T01:28:38.294Z,4.30
2023-02-22T01:31:05.589Z,4.60
2023-02-22T01:33:33.148Z,5.87
2023-02-22T01:36:00.273Z,5.13
2023-02-22T01:38:27.340Z,7.90
2023-02-22T01:40:54.524Z,4.80
2023-02-22T01:43:23.903Z,4.77
2023-02-22T01:45:57.659Z,6.00
2023-02-22T01:48:39.298Z,4.13
2023-02-22T01:51:12.291Z,4.43
2023-02-22T01:53:44.734Z,3.47
2023-02-22T01:56:14.196Z,3.90
2023-02-22T01:58:43.589Z,5.60
2023-02-22T02:01:11.356Z,3.53
2023-02-22T02:03:40.313Z,6.50
2023-02-22T02:06:12.473Z,3.43
2023-02-22T02:08:49.059Z,3.23
2023-02-22T02:11:19.087Z,2.97
2023-02-22T02:13:45.892Z,3.20
2023-02-22T02:16:12.498Z,2.97
2023-02-22T02:18:39.569Z,5.40
2023-02-22T02:21:38.061Z,3.30
2023-02-22T02:24:43.836Z,4.77
2023-02-22T02:27:13.508Z,5.33
2023-02-22T02:30:21.869Z,3.40
2023-02-22T02:32:55.147Z,3.23
2023-02-22T02:35:31.844Z,4.83
2023-02-22T02:38:05.005Z,3.37
2023-02-22T02:40:38.676Z,3.50
2023-02-22T02:43:13.127Z,3.63
2023-02-22T02:45:46.519Z,3.20
2023-02-22T02:48:16.952Z,3.23
2023-02-22T02:50:46.872Z,3.33
2023-02-22T02:53:17.379Z,3.53
2023-02-22T02:55:43.979Z,3.40
2023-02-22T02:58:17.818Z,3.70
2023-02-22T03:00:44.897Z,4.40
2023-02-22T03:03:33.299Z,3.37
2023-02-22T03:06:22.590Z,4.03
2023-02-22T03:08:56.834Z,3.00
2023-02-22T03:11:30.678Z,3.37
2023-02-22T03:14:06.547Z,3.80
2023-02-22T03:16:41.663Z,3.97
2023-02-22T03:19:16.994Z,3.83
2023-02-22T03:21:50.032Z,4.07
2023-02-22T03:24:19.672Z,3.20
2023-02-22T03:26:51.833Z,3.23
2023-02-22T03:29:23.770Z,3.40
2023-02-22T03:31:55.569Z,4.37
2023-02-22T03:34:29.145Z,4.07
2023-02-22T03:37:01.682Z,3.60
2023-02-22T03:39:30.438Z,2.90
2023-02-22T03:42:01.047Z,2.73
2023-02-22T03:44:31.475Z,2.90
2023-02-22T03:47:01.675Z,3.13
2023-02-22T03:49:34.569Z,3.03
2023-02-22T03:52:01.742Z,4.07
2023-02-22T03:54:29.671Z,3.30
2023-02-22T03:57:04.851Z,4.50
2023-02-22T03:59:34.115Z,2.53
2023-02-22T04:02:01.310Z,2.77
2023-02-22T04:04:27.907Z,3.00
2023-02-22T04:06:55.840Z,2.40
2023-02-22T04:09:22.936Z,3.97
2023-02-22T04:11:49.507Z,2.80
2023-02-22T04:14:16.395Z,3.77
2023-02-22T04:16:43.231Z,4.90
2023-02-22T04:19:10.169Z,3.73
2023-02-22T04:21:38.433Z,4.13
2023-02-22T04:24:07.590Z,3.47
2023-02-22T04:26:34.216Z,4.90
2023-02-22T04:29:03.515Z,5.00
2023-02-22T04:31:36.053Z,4.80
2023-02-22T04:34:03.000Z,3.60
2023-02-22T04:36:32.892Z,7.83
2023-02-22T04:39:00.553Z,5.10
2023-02-22T04:41:30.703Z,7.77
2023-02-22T04:43:57.269Z,5.23
2023-02-22T04:46:25.624Z,3.80
2023-02-22T04:48:52.932Z,3.40
2023-02-22T04:51:21.912Z,4.20
2023-02-22T04:53:58.944Z,5.50
2023-02-22T04:56:25.523Z,3.93
2023-02-22T04:58:53.714Z,2.97
2023-02-22T05:01:20.152Z,3.50
2023-02-22T05:03:47.145Z,5.33
2023-02-22T05:06:13.533Z,3.00
2023-02-22T05:08:39.982Z,4.47
2023-02-22T05:11:06.395Z,3.20
2023-02-22T05:13:32.801Z,3.73
2023-02-22T05:15:59.909Z,3.93
2023-02-22T05:18:26.344Z,4.10
2023-02-22T05:20:52.834Z,2.67
2023-02-22T05:23:19.229Z,3.60
2023-02-22T05:25:45.666Z,4.43
2023-02-22T05:28:14.997Z,3.90
2023-02-22T05:30:41.676Z,3.17
2023-02-22T05:33:09.773Z,4.50
2023-02-22T05:35:36.684Z,4.17
2023-02-22T05:38:03.404Z,3.10
2023-02-22T05:40:30.551Z,4.13
2023-02-22T05:42:57.994Z,2.97
2023-02-22T05:45:26.807Z,5.47
2023-02-22T05:47:54.374Z,3.40
2023-02-22T05:50:21.794Z,5.93
2023-02-22T05:52:48.775Z,3.70
2023-02-22T05:55:17.689Z,6.97
2023-02-22T05:57:44.249Z,3.57
2023-02-22T06:00:15.137Z,7.43
2023-02-22T06:02:42.288Z,5.63
2023-02-22T06:05:08.895Z,8.30
2023-02-22T06:07:36.048Z,8.53
2023-02-22T06:10:02.825Z,6.73
2023-02-22T06:12:30.362Z,4.87
2023-02-22T06:14:58.446Z,7.83
2023-02-22T06:17:24.850Z,4.60
2023-02-22T06:19:51.515Z,7.10
2023-02-22T06:22:19.240Z,10.37
2023-02-22T06:24:46.467Z,4.67
2023-02-22T06:27:15.726Z,4.53
2023-02-22T06:29:44.999Z,4.93
2023-02-22T06:32:11.500Z,3.87
2023-02-22T06:34:38.007Z,3.47
2023-02-22T06:37:04.396Z,3.90
2023-02-22T06:39:30.828Z,5.90
2023-02-22T06:41:59.569Z,5.13
2023-02-22T06:44:26.163Z,7.17
2023-02-22T06:46:52.582Z,8.57
2023-02-22T06:49:20.139Z,3.83
2023-02-22T06:51:47.309Z,9.17
2023-02-22T06:54:13.972Z,5.73
2023-02-22T06:56:40.453Z,3.00
2023-02-22T06:59:07.718Z,7.23
2023-02-22T07:01:34.191Z,3.67
2023-02-22T07:04:00.689Z,3.63
2023-02-22T07:06:27.374Z,4.73
2023-02-22T07:08:54.244Z,4.97
2023-02-22T07:11:20.699Z,9.60
2023-02-22T07:13:47.105Z,8.93
2023-02-22T07:16:14.265Z,8.03
2023-02-22T07:18:40.859Z,7.63
2023-02-22T07:21:07.368Z,13.53
2023-02-22T07:23:33.787Z,12.70
2023-02-22T07:26:00.670Z,8.37
2023-02-22T07:28:27.303Z,11.03
2023-02-22T07:30:53.893Z,6.43
2023-02-22T07:33:20.981Z,7.37
2023-02-22T07:35:49.116Z,7.63
2023-02-22T07:38:17.222Z,5.03
2023-02-22T07:40:44.458Z,8.10
2023-02-22T07:43:15.960Z,6.27
2023-02-22T07:45:43.909Z,4.67
2023-02-22T07:48:12.111Z,8.33
2023-02-22T07:50:40.306Z,7.60
2023-02-22T07:53:11.067Z,13.53
2023-02-22T07:55:37.488Z,12.87
2023-02-22T07:58:06.500Z,6.40
2023-02-22T08:00:34.796Z,7.17
2023-02-22T08:03:02.474Z,9.07
2023-02-22T08:05:30.399Z,3.53
2023-02-22T08:07:57.720Z,6.67
2023-02-22T08:10:26.021Z,3.83
2023-02-22T08:12:53.663Z,8.13
2023-02-22T08:15:23.503Z,4.67
2023-02-22T08:17:50.104Z,5.53
2023-02-22T08:20:16.938Z,6.60
2023-02-22T08:22:43.591Z,6.17
2023-02-22T08:25:10.961Z,3.63
2023-02-22T08:27:37.344Z,3.17
2023-02-22T08:30:05.719Z,3.73
2023-02-22T08:32:32.305Z,5.20
2023-02-22T08:34:58.826Z,20.60
2023-02-22T08:37:25.250Z,3.63
2023-02-22T08:39:52.984Z,3.63
2023-02-22T08:42:20.925Z,2.63
2023-02-22T08:44:47.493Z,3.07
2023-02-22T08:47:13.864Z,1.93
2023-02-22T08:49:41.380Z,3.73
2023-02-22T08:52:08.162Z,3.77
2023-02-22T08:54:34.586Z,2.97
2023-02-22T08:57:00.970Z,4.23
2023-02-22T08:59:27.993Z,5.50
2023-02-22T09:01:54.738Z,4.60
2023-02-22T09:04:21.450Z,11.50
2023-02-22T09:06:50.981Z,5.70
2023-02-22T09:09:20.271Z,3.03
2023-02-22T09:11:47.230Z,2.33
2023-02-22T09:14:14.645Z,2.60
2023-02-22T09:16:42.298Z,2.63
2023-02-22T09:19:08.699Z,3.70
2023-02-22T09:21:35.114Z,5.73
2023-02-22T09:24:07.590Z,3.07
2023-02-22T09:26:34.317Z,4.47
2023-02-22T09:29:01.273Z,3.47
2023-02-22T09:31:27.789Z,4.87
2023-02-22T09:33:55.178Z,2.87
2023-02-22T09:36:21.563Z,5.07
2023-02-22T09:38:47.966Z,4.67
2023-02-22T09:41:31.542Z,2.33
2023-02-22T09:44:15.053Z,4.80
2023-02-22T09:46:45.047Z,4.47
2023-02-22T09:49:20.797Z,2.90
2023-02-22T09:51:52.413Z,3.40
2023-02-22T09:54:24.490Z,4.17
2023-02-22T09:56:55.105Z,2.10
2023-02-22T09:59:26.380Z,4.53
2023-02-22T10:01:59.155Z,3.57
2023-02-22T10:04:40.532Z,5.00
2023-02-22T10:07:17.570Z,2.77
2023-02-22T10:09:45.959Z,5.13
2023-02-22T10:12:22.633Z,2.80
2023-02-22T10:15:08.635Z,3.37
2023-02-22T10:17:45.140Z,5.47
2023-02-22T10:20:37.581Z,2.70
2023-02-22T10:23:13.924Z,3.17
2023-02-22T10:25:44.893Z,1.73
2023-02-22T10:28:17.843Z,4.10
2023-02-22T10:30:54.103Z,2.53
2023-02-22T10:33:22.261Z,2.30
2023-02-22T10:35:52.650Z,3.27
2023-02-22T10:38:22.791Z,1.73
2023-02-22T10:40:54.384Z,4.53
2023-02-22T10:43:22.661Z,2.37
2023-02-22T10:45:53.124Z,2.80
2023-02-22T10:48:20.867Z,2.00
2023-02-22T10:50:49.696Z,3.30
2023-02-22T10:53:16.988Z,1.57
2023-02-22T10:56:12.575Z,1.77
2023-02-22T10:58:45.592Z,2.77
2023-02-22T11:01:35.055Z,2.03
2023-02-22T11:04:08.514Z,2.77
2023-02-22T11:06:37.287Z,2.67
2023-02-22T11:09:17.179Z,6.40
2023-02-22T11:11:45.622Z,3.50
2023-02-22T11:14:13.751Z,1.90
2023-02-22T11:16:42.810Z,1.70
2023-02-22T11:19:17.824Z,2.40
2023-02-22T11:21:44.569Z,1.93
2023-02-22T11:24:14.920Z,1.67
2023-02-22T11:26:43.518Z,2.00
2023-02-22T11:29:13.630Z,1.63
2023-02-22T11:31:45.163Z,3.33
2023-02-22T11:34:26.992Z,5.13
2023-02-22T11:36:53.677Z,1.70
2023-02-22T11:39:26.637Z,2.53
2023-02-22T11:41:55.099Z,3.17
2023-02-22T11:44:25.789Z,1.70
2023-02-22T11:46:55.325Z,2.57
2023-02-22T11:49:23.948Z,2.13
2023-02-22T11:52:06.779Z,1.73
2023-02-22T11:55:06.706Z,1.67
2023-02-22T11:57:46.291Z,1.73
2023-02-22T12:00:28.497Z,1.60
2023-02-22T12:03:23.839Z,4.73
2023-02-22T12:06:06.335Z,3.93
2023-02-22T12:08:46.234Z,2.50
2023-02-22T12:11:21.472Z,1.23
2023-02-22T12:14:05.439Z,1.97
2023-02-22T12:16:43.441Z,3.67
2023-02-22T12:19:19.709Z,2.10
2023-02-22T12:21:52.687Z,2.40
2023-02-22T12:24:22.576Z,2.60
2023-02-22T12:26:53.470Z,1.47
2023-02-22T12:29:28.041Z,2.23
2023-02-22T12:31:59.715Z,4.53
2023-02-22T12:34:32.755Z,2.90
2023-02-22T12:37:09.520Z,4.03
2023-02-22T12:39:52.779Z,3.37
2023-02-22T12:42:27.124Z,3.40
2023-02-22T12:44:57.846Z,2.73
2023-02-22T12:47:33.999Z,8.30
2023-02-22T12:50:11.250Z,3.00
2023-02-22T12:52:44.481Z,4.60
2023-02-22T12:55:16.337Z,2.47
2023-02-22T12:57:51.294Z,1.40
2023-02-22T13:00:47.144Z,2.00
2023-02-22T13:03:30.172Z,2.67
2023-02-22T13:06:08.411Z,1.23
2023-02-22T13:08:41.290Z,4.33
2023-02-22T13:11:17.707Z,2.90
2023-02-22T13:13:56.113Z,1.97
2023-02-22T13:16:36.835Z,2.73
2023-02-22T13:19:12.466Z,3.33
2023-02-22T13:21:46.507Z,2.80
2023-02-22T13:24:22.833Z,3.03
2023-02-22T13:26:53.209Z,2.60
2023-02-22T13:29:27.660Z,1.57
2023-02-22T13:32:13.324Z,2.47
2023-02-22T13:34:56.088Z,6.57
2023-02-22T13:37:45.224Z,1.90
2023-02-22T13:40:46.172Z,4.57
2023-02-22T13:43:45.779Z,3.40
2023-02-22T13:46:39.602Z,5.53
2023-02-22T13:49:35.787Z,4.43
2023-02-22T13:52:06.891Z,2.63
2023-02-22T13:54:40.689Z,1.70
2023-02-22T13:57:19.666Z,2.67
2023-02-22T13:59:46.745Z,2.80
2023-02-22T14:02:53.665Z,4.97
2023-02-22T14:05:50.293Z,2.00
2023-02-22T14:08:41.299Z,4.93
2023-02-22T14:11:56.325Z,3.60
2023-02-22T14:14:24.066Z,6.00
2023-02-22T14:17:25.713Z,2.93
2023-02-22T14:20:19.484Z,2.70
2023-02-22T14:22:48.604Z,6.63
2023-02-22T14:25:39.890Z,1.87
2023-02-22T14:28:09.077Z,3.13
2023-02-22T14:30:39.330Z,2.07
2023-02-22T14:33:41.253Z,2.53
2023-02-22T14:36:09.152Z,2.70
2023-02-22T14:38:36.591Z,4.03
2023-02-22T14:41:03.607Z,5.17
2023-02-22T14:43:30.792Z,4.00
2023-02-22T14:46:00.645Z,3.67
2023-02-22T14:48:38.469Z,5.10
2023-02-22T14:51:21.616Z,2.37
2023-02-22T14:53:53.670Z,4.07
2023-02-22T14:56:23.795Z,3.93
2023-02-22T14:58:56.212Z,3.80
2023-02-22T15:01:44.478Z,4.47
2023-02-22T15:04:20.853Z,3.60
2023-02-22T15:06:48.116Z,5.93
2023-02-22T15:09:23.108Z,4.53
2023-02-22T15:11:51.741Z,5.97
2023-02-22T15:14:26.238Z,4.20
2023-02-22T15:16:56.172Z,5.37
2023-02-22T15:19:26.558Z,2.30
2023-02-22T15:21:55.512Z,2.80
2023-02-22T15:24:25.732Z,3.60
2023-02-22T15:27:01.622Z,1.90
2023-02-22T15:29:35.063Z,5.87
2023-02-22T15:32:01.678Z,4.73
2023-02-22T15:34:30.943Z,2.87
2023-02-22T15:37:21.595Z,5.73
2023-02-22T15:39:48.779Z,5.10
2023-02-22T15:42:20.090Z,5.17
2023-02-22T15:44:48.348Z,4.77
2023-02-22T15:47:18.654Z,5.60
2023-02-22T15:49:45.922Z,3.63
2023-02-22T15:52:20.367Z,3.67
2023-02-22T15:54:50.440Z,6.80
2023-02-22T15:57:19.926Z,5.57
2023-02-22T15:59:52.261Z,2.87
2023-02-22T16:02:37.341Z,3.60
2023-02-22T16:05:07.880Z,5.33
2023-02-22T16:07:41.021Z,2.90
2023-02-22T16:10:22.333Z,3.10
2023-02-22T16:12:49.316Z,3.73
2023-02-22T16:15:18.453Z,4.93
2023-02-22T16:18:00.898Z,6.33
2023-02-22T16:20:35.521Z,4.07
2023-02-22T16:23:22.842Z,6.23
2023-02-22T16:26:18.021Z,8.37
2023-02-22T16:28:51.312Z,6.80
2023-02-22T16:31:22.078Z,7.20
2023-02-22T16:33:50.340Z,4.57
2023-02-22T16:36:18.402Z,7.47
2023-02-22T16:38:47.625Z,14.60
2023-02-22T16:41:19.277Z,7.53
2023-02-22T16:43:50.415Z,7.17
2023-02-22T16:46:18.146Z,8.33
2023-02-22T16:48:46.018Z,6.73
2023-02-22T16:51:20.682Z,8.77
2023-02-22T16:53:48.244Z,7.30
2023-02-22T16:56:18.318Z,19.40
2023-02-22T16:58:46.246Z,23.97
2023-02-22T17:01:12.781Z,23.80
2023-02-22T17:03:39.238Z,16.53
2023-02-22T17:06:06.237Z,14.53
2023-02-22T17:08:32.692Z,11.97
2023-02-22T17:10:59.975Z,7.13
2023-02-22T17:13:28.516Z,9.17
2023-02-22T17:15:55.409Z,12.87
2023-02-22T17:18:23.447Z,12.20
2023-02-22T17:20:50.997Z,15.07
2023-02-22T17:23:18.401Z,10.73
2023-02-22T17:25:48.537Z,16.00
2023-02-22T17:28:15.236Z,17.77
2023-02-22T17:30:44.415Z,16.73
2023-02-22T17:33:15.255Z,11.17
2023-02-22T17:35:41.833Z,13.63
2023-02-22T17:38:09.071Z,20.20
2023-02-22T17:40:37.237Z,8.80
2023-02-22T17:43:07.297Z,13.00
2023-02-22T17:45:35.510Z,13.63
2023-02-22T17:48:02.665Z,10.97
2023-02-22T17:50:30.956Z,16.47
2023-02-22T17:53:00.175Z,13.93
2023-02-22T17:55:27.248Z,8.10
2023-02-22T17:57:57.558Z,7.03
2023-02-22T18:00:32.575Z,6.90
2023-02-22T18:03:00.769Z,12.87
2023-02-22T18:05:28.396Z,9.97
2023-02-22T18:07:54.973Z,7.53
2023-02-22T18:10:21.672Z,8.70
2023-02-22T18:12:48.282Z,12.07
2023-02-22T18:15:16.788Z,9.10
2023-02-22T18:17:44.798Z,9.77
2023-02-22T18:20:11.923Z,6.90
2023-02-22T18:22:41.986Z,6.73
2023-02-22T18:25:08.817Z,11.20
2023-02-22T18:27:35.594Z,8.37
2023-02-22T18:30:02.031Z,11.90
2023-02-22T18:32:31.164Z,9.60
2023-02-22T18:34:57.966Z,11.47
2023-02-22T18:37:27.435Z,10.47
2023-02-22T18:39:54.903Z,8.70
2023-02-22T18:42:22.665Z,12.60
2023-02-22T18:44:49.815Z,11.97
2023-02-22T18:47:16.448Z,11.93
2023-02-22T18:49:42.868Z,11.13
2023-02-22T18:52:11.806Z,15.67
2023-02-22T18:54:39.137Z,17.10
2023-02-22T18:57:06.804Z,12.23
2023-02-22T18:59:33.554Z,9.03
2023-02-22T19:02:00.957Z,12.57
2023-02-22T19:04:27.315Z,11.50
2023-02-22T19:06:54.092Z,12.93
2023-02-22T19:09:20.501Z,10.13
2023-02-22T19:11:47.586Z,9.80
2023-02-22T19:14:16.629Z,8.93
2023-02-22T19:16:45.657Z,11.23
2023-02-22T19:19:12.793Z,14.93
2023-02-22T19:21:40.736Z,10.77
2023-02-22T19:24:07.763Z,10.73
2023-02-22T19:26:34.176Z,11.73
2023-02-22T19:29:04.994Z,10.27
2023-02-22T19:31:35.584Z,11.10
2023-02-22T19:34:05.314Z,11.00
2023-02-22T19:36:35.363Z,9.17
2023-02-22T19:39:02.003Z,11.03
2023-02-22T19:41:29.685Z,12.53
2023-02-22T19:43:56.952Z,10.30
2023-02-22T19:46:25.416Z,15.53
2023-02-22T19:48:54.795Z,9.63
2023-02-22T19:51:25.827Z,12.03
2023-02-22T19:53:53.594Z,12.07
2023-02-22T19:56:26.142Z,11.13
2023-02-22T19:58:54.651Z,12.77
2023-02-22T20:01:23.893Z,12.07
2023-02-22T20:03:53.503Z,13.47
2023-02-22T20:06:22.241Z,14.60
2023-02-22T20:08:50.276Z,12.20
2023-02-22T20:11:16.966Z,12.77
2023-02-22T20:13:43.710Z,11.40
2023-02-22T20:16:14.739Z,11.10
2023-02-22T20:18:41.814Z,13.73
2023-02-22T20:21:08.931Z,17.83
2023-02-22T20:23:36.218Z,14.00
2023-02-22T20:26:03.681Z,14.83
2023-02-22T20:28:30.083Z,11.03
2023-02-22T20:30:56.657Z,12.07
2023-02-22T20:33:23.354Z,11.23
2023-02-22T20:35:49.901Z,11.53
2023-02-22T20:38:18.512Z,12.17
2023-02-22T20:40:46.081Z,12.37
2023-02-22T20:43:12.700Z,11.80
2023-02-22T20:45:40.991Z,13.17
2023-02-22T20:48:07.760Z,11.53
2023-02-22T20:50:37.981Z,10.70
2023-02-22T20:53:07.596Z,10.73
2023-02-22T20:55:34.212Z,11.73
2023-02-22T20:58:01.401Z,12.00
2023-02-22T21:00:29.918Z,12.93
2023-02-22T21:02:56.520Z,13.80
2023-02-22T21:05:23.035Z,14.07
2023-02-22T21:07:49.588Z,12.23
2023-02-22T21:10:20.204Z,10.87
2023-02-22T21:12:47.282Z,10.37
2023-02-22T21:15:14.457Z,12.70
2023-02-22T21:17:46.842Z,11.63
2023-02-22T21:20:14.257Z,11.40
2023-02-22T21:22:41.716Z,14.27
2023-02-22T21:25:09.985Z,12.70
2023-02-22T21:27:38.151Z,12.67
2023-02-22T21:30:05.739Z,12.87
2023-02-22T21:32:33.960Z,13.37
2023-02-22T21:35:00.411Z,10.80
2023-02-22T21:37:27.331Z,13.63
2023-02-22T21:39:55.433Z,10.90
2023-02-22T21:42:21.952Z,11.53
2023-02-22T21:44:53.648Z,13.37
2023-02-22T21:47:20.064Z,11.77
2023-02-22T21:49:48.582Z,10.80
2023-02-22T21:52:15.693Z,10.73
2023-02-22T21:54:42.254Z,11.80
2023-02-22T21:57:08.886Z,11.70
2023-02-22T21:59:35.497Z,11.97
2023-02-22T22:02:05.374Z,12.73
2023-02-22T22:04:34.648Z,10.27
2023-02-22T22:07:03.208Z,11.30
2023-02-22T22:09:32.106Z,13.33
2023-02-22T22:12:02.072Z,11.53
2023-02-22T22:14:28.713Z,13.93
2023-02-22T22:16:57.808Z,12.80
2023-02-22T22:19:24.757Z,13.77
2023-02-22T22:21:53.199Z,13.17
2023-02-22T22:24:21.650Z,12.60
2023-02-22T22:26:50.312Z,15.47
2023-02-22T22:29:17.908Z,14.37
2023-02-22T22:31:44.758Z,14.23
2023-02-22T22:34:11.224Z,12.47
2023-02-22T22:36:37.989Z,13.73
2023-02-22T22:39:12.278Z,13.77
2023-02-22T22:41:39.743Z,14.47
2023-02-22T22:44:08.742Z,13.13
2023-02-22T22:46:38.898Z,14.27
2023-02-22T22:49:07.321Z,13.40
2023-02-22T22:51:33.831Z,15.90
2023-02-22T22:54:00.234Z,12.87
2023-02-22T22:56:27.015Z,15.77
2023-02-22T22:58:55.552Z,14.90
2023-02-22T23:01:32.012Z,13.53
2023-02-22T23:04:02.020Z,13.20
2023-02-22T23:06:32.010Z,15.73
2023-02-22T23:09:00.937Z,15.63
2023-02-22T23:11:29.033Z,15.13
2023-02-22T23:13:56.369Z,17.47
2023-02-22T23:16:23.517Z,14.03
2023-02-22T23:18:50.659Z,15.50
2023-02-22T23:21:18.389Z,16.47
2023-02-22T23:23:50.551Z,15.97
2023-02-22T23:26:17.527Z,15.97
2023-02-22T23:28:45.840Z,14.60
2023-02-22T23:31:15.896Z,19.73
2023-02-22T23:33:43.293Z,14.67
2023-02-22T23:36:11.640Z,15.70
2023-02-22T23:38:38.752Z,15.87
2023-02-22T23:41:08.175Z,13.77
2023-02-22T23:43:34.739Z,13.53
2023-02-22T23:46:03.052Z,14.73
2023-02-22T23:48:30.139Z,16.27
2023-02-22T23:50:58.423Z,15.40
2023-02-22T23:53:25.206Z,16.77
2023-02-22T23:55:52.126Z,13.10
2023-02-22T23:58:22.085Z,15.27
